sensor_id;sensor_type;location;lat;lon;timestamp;pressure;altitude;pressure_sealevel;temperature;humidity
64967;BME280;51710;38.732;-121.358;2023-04-26T00:01:02;100521.47;;;29.83;24.95
64967;BME280;51710;38.732;-121.358;2023-04-26T00:03:29;100522.53;;;29.82;24.16
64967;BME280;51710;38.732;-121.358;2023-04-26T00:05:56;100514.34;;;29.77;24.61
64967;BME280;51710;38.732;-121.358;2023-04-26T00:08:22;100511.13;;;29.70;24.40
64967;BME280;51710;38.732;-121.358;2023-04-26T00:10:48;100509.75;;;29.67;24.58
64967;BME280;51710;38.732;-121.358;2023-04-26T00:13:14;100511.69;;;29.67;25.28
64967;BME280;51710;38.732;-121.358;2023-04-26T00:15:41;100513.03;;;29.69;25.40
64967;BME280;51710;38.732;-121.358;2023-04-26T00:18:07;100505.09;;;29.68;25.70
64967;BME280;51710;38.732;-121.358;2023-04-26T00:20:33;100503.50;;;29.62;24.90
64967;BME280;51710;38.732;-121.358;2023-04-26T00:22:59;100506.28;;;29.57;24.48
64967;BME280;51710;38.732;-121.358;2023-04-26T00:25:26;100514.53;;;29.52;24.77
64967;BME280;51710;38.732;-121.358;2023-04-26T00:27:52;100514.28;;;29.48;24.87
64967;BME280;51710;38.732;-121.358;2023-04-26T00:30:19;100517.59;;;29.45;25.20
64967;BME280;51710;38.732;-121.358;2023-04-26T00:32:45;100517.06;;;29.43;24.99
64967;BME280;51710;38.732;-121.358;2023-04-26T00:35:12;100505.28;;;29.43;25.24
64967;BME280;51710;38.732;-121.358;2023-04-26T00:37:38;100515.16;;;29.44;25.35
64967;BME280;51710;38.732;-121.358;2023-04-26T00:40:06;100508.84;;;29.43;25.78
64967;BME280;51710;38.732;-121.358;2023-04-26T00:42:33;100519.03;;;29.38;25.01
64967;BME280;51710;38.732;-121.358;2023-04-26T00:45:00;100519.06;;;29.33;25.49
64967;BME280;51710;38.732;-121.358;2023-04-26T00:47:28;100522.41;;;29.30;25.44
64967;BME280;51710;38.732;-121.358;2023-04-26T00:49:55;100524.88;;;29.26;25.92
64967;BME280;51710;38.732;-121.358;2023-04-26T00:52:23;100525.19;;;29.25;26.00
64967;BME280;51710;38.732;-121.358;2023-04-26T00:54:50;100529.84;;;29.24;26.55
64967;BME280;51710;38.732;-121.358;2023-04-26T00:57:16;100528.22;;;29.23;26.25
64967;BME280;51710;38.732;-121.358;2023-04-26T00:59:42;100527.13;;;29.19;25.97
64967;BME280;51710;38.732;-121.358;2023-04-26T01:02:09;100530.16;;;29.18;25.81
64967;BME280;51710;38.732;-121.358;2023-04-26T01:04:35;100531.53;;;29.15;26.05
64967;BME280;51710;38.732;-121.358;2023-04-26T01:07:02;100527.16;;;29.14;25.34
64967;BME280;51710;38.732;-121.358;2023-04-26T01:09:31;100534.56;;;29.14;25.68
64967;BME280;51710;38.732;-121.358;2023-04-26T01:11:58;100529.09;;;29.14;25.63
64967;BME280;51710;38.732;-121.358;2023-04-26T01:14:25;100534.03;;;29.07;25.71
64967;BME280;51710;38.732;-121.358;2023-04-26T01:16:52;100529.69;;;29.01;25.58
64967;BME280;51710;38.732;-121.358;2023-04-26T01:19:18;100523.13;;;28.97;25.78
64967;BME280;51710;38.732;-121.358;2023-04-26T01:21:44;100529.19;;;28.94;25.89
64967;BME280;51710;38.732;-121.358;2023-04-26T01:24:12;100535.25;;;28.91;26.08
64967;BME280;51710;38.732;-121.358;2023-04-26T01:26:41;100534.13;;;28.92;26.17
64967;BME280;51710;38.732;-121.358;2023-04-26T01:29:20;100533.03;;;28.88;26.23
64967;BME280;51710;38.732;-121.358;2023-04-26T01:31:47;100535.53;;;28.84;26.58
64967;BME280;51710;38.732;-121.358;2023-04-26T01:34:14;100534.97;;;28.82;25.94
64967;BME280;51710;38.732;-121.358;2023-04-26T01:36:40;100541.03;;;28.79;26.31
64967;BME280;51710;38.732;-121.358;2023-04-26T01:39:07;100537.44;;;28.89;26.60
64967;BME280;51710;38.732;-121.358;2023-04-26T01:41:36;100537.25;;;29.29;26.90
64967;BME280;51710;38.732;-121.358;2023-04-26T01:44:03;100539.94;;;29.34;26.53
64967;BME280;51710;38.732;-121.358;2023-04-26T01:46:29;100536.72;;;29.22;26.24
64967;BME280;51710;38.732;-121.358;2023-04-26T01:48:55;100533.50;;;29.05;26.41
64967;BME280;51710;38.732;-121.358;2023-04-26T01:51:22;100540.72;;;28.91;26.91
64967;BME280;51710;38.732;-121.358;2023-04-26T01:53:48;100545.19;;;28.76;27.36
64967;BME280;51710;38.732;-121.358;2023-04-26T01:56:14;100546.31;;;28.65;27.94
64967;BME280;51710;38.732;-121.358;2023-04-26T01:58:41;100536.47;;;28.54;26.91
64967;BME280;51710;38.732;-121.358;2023-04-26T02:01:08;100538.13;;;28.45;27.25
64967;BME280;51710;38.732;-121.358;2023-04-26T02:03:35;100539.50;;;28.43;28.12
64967;BME280;51710;38.732;-121.358;2023-04-26T02:06:01;100541.72;;;28.41;27.60
64967;BME280;51710;38.732;-121.358;2023-04-26T02:08:28;100543.38;;;28.32;28.18
64967;BME280;51710;38.732;-121.358;2023-04-26T02:10:55;100549.72;;;28.22;27.55
64967;BME280;51710;38.732;-121.358;2023-04-26T02:13:21;100545.34;;;28.11;28.38
64967;BME280;51710;38.732;-121.358;2023-04-26T02:15:48;100545.66;;;28.00;28.71
64967;BME280;51710;38.732;-121.358;2023-04-26T02:18:16;100547.00;;;27.87;28.70
64967;BME280;51710;38.732;-121.358;2023-04-26T02:20:43;100551.66;;;27.71;28.81
64967;BME280;51710;38.732;-121.358;2023-04-26T02:23:11;100556.59;;;27.59;29.12
64967;BME280;51710;38.732;-121.358;2023-04-26T02:25:38;100567.53;;;27.49;28.88
64967;BME280;51710;38.732;-121.358;2023-04-26T02:28:04;100565.03;;;27.38;28.88
64967;BME280;51710;38.732;-121.358;2023-04-26T02:30:31;100569.94;;;27.31;28.78
64967;BME280;51710;38.732;-121.358;2023-04-26T02:32:57;100573.19;;;27.23;28.71
64967;BME280;51710;38.732;-121.358;2023-04-26T02:35:24;100580.28;;;27.14;29.43
64967;BME280;51710;38.732;-121.358;2023-04-26T02:37:51;100575.34;;;27.06;30.54
64967;BME280;51710;38.732;-121.358;2023-04-26T02:40:18;100584.03;;;26.98;31.04
64967;BME280;51710;38.732;-121.358;2023-04-26T02:42:44;100586.19;;;26.86;31.09
64967;BME280;51710;38.732;-121.358;2023-04-26T02:45:11;100585.03;;;26.77;31.63
64967;BME280;51710;38.732;-121.358;2023-04-26T02:47:37;100592.09;;;26.67;31.12
64967;BME280;51710;38.732;-121.358;2023-04-26T02:50:07;100586.00;;;26.55;31.24
64967;BME280;51710;38.732;-121.358;2023-04-26T02:52:35;100592.78;;;26.43;31.17
64967;BME280;51710;38.732;-121.358;2023-04-26T02:55:02;100588.03;;;26.28;31.57
64967;BME280;51710;38.732;-121.358;2023-04-26T02:57:31;100592.84;;;26.11;31.86
64967;BME280;51710;38.732;-121.358;2023-04-26T02:59:58;100600.06;;;25.96;31.82
64967;BME280;51710;38.732;-121.358;2023-04-26T03:02:24;100604.56;;;25.80;32.50
64967;BME280;51710;38.732;-121.358;2023-04-26T03:04:51;100600.63;;;25.66;33.30
64967;BME280;51710;38.732;-121.358;2023-04-26T03:07:17;100595.56;;;25.53;33.21
64967;BME280;51710;38.732;-121.358;2023-04-26T03:09:43;100597.63;;;25.41;33.68
64967;BME280;51710;38.732;-121.358;2023-04-26T03:12:10;100600.22;;;25.31;34.29
64967;BME280;51710;38.732;-121.358;2023-04-26T03:14:36;100603.66;;;25.21;34.85
64967;BME280;51710;38.732;-121.358;2023-04-26T03:17:03;100605.38;;;25.06;35.13
64967;BME280;51710;38.732;-121.358;2023-04-26T03:19:29;100611.50;;;24.91;35.42
64967;BME280;51710;38.732;-121.358;2023-04-26T03:21:55;100617.06;;;24.80;35.37
64967;BME280;51710;38.732;-121.358;2023-04-26T03:24:22;100617.50;;;24.72;35.43
64967;BME280;51710;38.732;-121.358;2023-04-26T03:26:48;100619.50;;;24.60;35.42
64967;BME280;51710;38.732;-121.358;2023-04-26T03:29:15;100628.00;;;24.46;35.55
64967;BME280;51710;38.732;-121.358;2023-04-26T03:31:41;100626.22;;;24.35;36.29
64967;BME280;51710;38.732;-121.358;2023-04-26T03:34:08;100625.72;;;24.22;35.75
64967;BME280;51710;38.732;-121.358;2023-04-26T03:36:34;100621.94;;;24.06;35.66
64967;BME280;51710;38.732;-121.358;2023-04-26T03:39:00;100627.59;;;23.88;36.70
64967;BME280;51710;38.732;-121.358;2023-04-26T03:41:27;100625.69;;;23.72;36.92
64967;BME280;51710;38.732;-121.358;2023-04-26T03:43:53;100625.44;;;23.57;37.63
64967;BME280;51710;38.732;-121.358;2023-04-26T03:46:19;100633.88;;;23.44;37.69
64967;BME280;51710;38.732;-121.358;2023-04-26T03:48:45;100634.72;;;23.33;38.19
64967;BME280;51710;38.732;-121.358;2023-04-26T03:51:12;100636.03;;;23.19;38.05
64967;BME280;51710;38.732;-121.358;2023-04-26T03:53:40;100650.63;;;23.13;38.39
64967;BME280;51710;38.732;-121.358;2023-04-26T03:56:07;100647.91;;;23.13;38.39
64967;BME280;51710;38.732;-121.358;2023-04-26T03:58:33;100644.59;;;23.11;38.42
64967;BME280;51710;38.732;-121.358;2023-04-26T04:00:59;100654.63;;;23.10;38.50
64967;BME280;51710;38.732;-121.358;2023-04-26T04:03:25;100652.63;;;23.06;37.82
64967;BME280;51710;38.732;-121.358;2023-04-26T04:05:54;100657.28;;;22.94;38.21
64967;BME280;51710;38.732;-121.358;2023-04-26T04:08:20;100658.59;;;22.80;38.14
64967;BME280;51710;38.732;-121.358;2023-04-26T04:10:47;100657.78;;;22.68;38.72
64967;BME280;51710;38.732;-121.358;2023-04-26T04:13:13;100668.88;;;22.55;39.35
64967;BME280;51710;38.732;-121.358;2023-04-26T04:15:39;100667.31;;;22.35;40.16
64967;BME280;51710;38.732;-121.358;2023-04-26T04:18:05;100672.16;;;22.22;41.17
64967;BME280;51710;38.732;-121.358;2023-04-26T04:20:32;100666.47;;;22.12;40.97
64967;BME280;51710;38.732;-121.358;2023-04-26T04:22:58;100676.84;;;22.03;41.25
64967;BME280;51710;38.732;-121.358;2023-04-26T04:25:24;100678.34;;;21.99;40.93
64967;BME280;51710;38.732;-121.358;2023-04-26T04:27:52;100686.84;;;21.91;41.36
64967;BME280;51710;38.732;-121.358;2023-04-26T04:30:18;100685.75;;;21.81;41.34
64967;BME280;51710;38.732;-121.358;2023-04-26T04:32:44;100695.00;;;21.73;41.91
64967;BME280;51710;38.732;-121.358;2023-04-26T04:35:11;100692.63;;;21.65;42.23
64967;BME280;51710;38.732;-121.358;2023-04-26T04:37:38;100687.72;;;21.56;42.50
64967;BME280;51710;38.732;-121.358;2023-04-26T04:40:05;100697.00;;;21.48;42.30
64967;BME280;51710;38.732;-121.358;2023-04-26T04:42:33;100693.72;;;21.46;42.44
64967;BME280;51710;38.732;-121.358;2023-04-26T04:45:00;100696.88;;;21.43;42.36
64967;BME280;51710;38.732;-121.358;2023-04-26T04:47:27;100698.22;;;21.34;42.41
64967;BME280;51710;38.732;-121.358;2023-04-26T04:49:53;100704.94;;;21.32;43.01
64967;BME280;51710;38.732;-121.358;2023-04-26T04:52:19;100699.28;;;21.33;42.95
64967;BME280;51710;38.732;-121.358;2023-04-26T04:54:46;100698.22;;;21.34;42.46
64967;BME280;51710;38.732;-121.358;2023-04-26T04:57:13;100694.72;;;21.34;42.19
64967;BME280;51710;38.732;-121.358;2023-04-26T04:59:41;100702.59;;;21.35;41.94
64967;BME280;51710;38.732;-121.358;2023-04-26T05:02:08;100709.84;;;21.23;42.47
64967;BME280;51710;38.732;-121.358;2023-04-26T05:04:34;100702.00;;;21.15;43.16
64967;BME280;51710;38.732;-121.358;2023-04-26T05:07:00;100708.50;;;21.14;44.07
64967;BME280;51710;38.732;-121.358;2023-04-26T05:09:26;100712.41;;;21.18;43.78
64967;BME280;51710;38.732;-121.358;2023-04-26T05:11:53;100711.50;;;21.24;43.56
64967;BME280;51710;38.732;-121.358;2023-04-26T05:14:19;100721.88;;;21.27;43.21
64967;BME280;51710;38.732;-121.358;2023-04-26T05:16:45;100709.25;;;21.21;43.26
64967;BME280;51710;38.732;-121.358;2023-04-26T05:19:11;100711.06;;;21.09;44.00
64967;BME280;51710;38.732;-121.358;2023-04-26T05:21:38;100711.47;;;20.88;44.29
64967;BME280;51710;38.732;-121.358;2023-04-26T05:24:04;100715.81;;;20.71;44.43
64967;BME280;51710;38.732;-121.358;2023-04-26T05:26:30;100720.31;;;20.59;45.46
64967;BME280;51710;38.732;-121.358;2023-04-26T05:28:57;100714.38;;;20.44;45.88
64967;BME280;51710;38.732;-121.358;2023-04-26T05:31:23;100719.06;;;20.30;46.59
64967;BME280;51710;38.732;-121.358;2023-04-26T05:33:49;100721.00;;;20.23;47.34
64967;BME280;51710;38.732;-121.358;2023-04-26T05:36:16;100731.31;;;20.01;47.11
64967;BME280;51710;38.732;-121.358;2023-04-26T05:38:42;100731.06;;;19.78;47.52
64967;BME280;51710;38.732;-121.358;2023-04-26T05:41:08;100728.03;;;19.62;47.84
64967;BME280;51710;38.732;-121.358;2023-04-26T05:43:36;100736.59;;;19.46;48.00
64967;BME280;51710;38.732;-121.358;2023-04-26T05:46:02;100737.91;;;19.37;48.61
64967;BME280;51710;38.732;-121.358;2023-04-26T05:48:28;100741.66;;;19.29;48.90
64967;BME280;51710;38.732;-121.358;2023-04-26T05:50:55;100738.13;;;19.22;49.13
64967;BME280;51710;38.732;-121.358;2023-04-26T05:53:21;100747.28;;;19.21;49.26
64967;BME280;51710;38.732;-121.358;2023-04-26T05:55:47;100747.69;;;19.18;50.11
64967;BME280;51710;38.732;-121.358;2023-04-26T05:58:14;100749.19;;;19.01;50.51
64967;BME280;51710;38.732;-121.358;2023-04-26T06:00:40;100750.06;;;18.95;50.19
64967;BME280;51710;38.732;-121.358;2023-04-26T06:03:07;100760.00;;;19.01;49.34
64967;BME280;51710;38.732;-121.358;2023-04-26T06:05:35;100752.91;;;19.13;49.10
64967;BME280;51710;38.732;-121.358;2023-04-26T06:08:02;100763.69;;;19.26;49.54
64967;BME280;51710;38.732;-121.358;2023-04-26T06:10:29;100755.38;;;19.28;49.84
64967;BME280;51710;38.732;-121.358;2023-04-26T06:12:55;100760.38;;;19.24;49.57
64967;BME280;51710;38.732;-121.358;2023-04-26T06:15:21;100759.53;;;19.24;49.61
64967;BME280;51710;38.732;-121.358;2023-04-26T06:17:47;100763.25;;;19.29;49.97
64967;BME280;51710;38.732;-121.358;2023-04-26T06:20:14;100759.97;;;19.21;50.45
64967;BME280;51710;38.732;-121.358;2023-04-26T06:22:43;100766.25;;;19.01;51.27
64967;BME280;51710;38.732;-121.358;2023-04-26T06:25:09;100762.31;;;18.91;51.30
64967;BME280;51710;38.732;-121.358;2023-04-26T06:27:36;100776.81;;;18.90;51.71
64967;BME280;51710;38.732;-121.358;2023-04-26T06:30:05;100773.31;;;18.83;51.73
64967;BME280;51710;38.732;-121.358;2023-04-26T06:32:32;100769.16;;;18.80;51.85
64967;BME280;51710;38.732;-121.358;2023-04-26T06:34:58;100772.50;;;18.82;51.84
64967;BME280;51710;38.732;-121.358;2023-04-26T06:37:25;100767.72;;;18.84;51.74
64967;BME280;51710;38.732;-121.358;2023-04-26T06:39:51;100768.31;;;18.86;51.74
64967;BME280;51710;38.732;-121.358;2023-04-26T06:42:17;100761.69;;;18.89;51.85
64967;BME280;51710;38.732;-121.358;2023-04-26T06:44:43;100768.72;;;18.90;52.06
64967;BME280;51710;38.732;-121.358;2023-04-26T06:47:09;100769.56;;;18.90;52.23
64967;BME280;51710;38.732;-121.358;2023-04-26T06:49:36;100773.94;;;18.91;52.36
64967;BME280;51710;38.732;-121.358;2023-04-26T06:52:02;100773.50;;;18.94;52.34
64967;BME280;51710;38.732;-121.358;2023-04-26T06:54:29;100780.34;;;18.97;52.29
64967;BME280;51710;38.732;-121.358;2023-04-26T06:56:55;100780.75;;;19.00;52.25
64967;BME280;51710;38.732;-121.358;2023-04-26T06:59:22;100774.13;;;19.03;52.18
64967;BME280;51710;38.732;-121.358;2023-04-26T07:01:48;100777.44;;;19.05;52.29
64967;BME280;51710;38.732;-121.358;2023-04-26T07:04:14;100782.41;;;19.08;52.61
64967;BME280;51710;38.732;-121.358;2023-04-26T07:06:43;100777.00;;;19.08;52.30
64967;BME280;51710;38.732;-121.358;2023-04-26T07:09:09;100782.19;;;19.09;52.38
64967;BME280;51710;38.732;-121.358;2023-04-26T07:11:35;100782.63;;;19.06;52.54
64967;BME280;51710;38.732;-121.358;2023-04-26T07:14:01;100787.00;;;19.01;52.68
64967;BME280;51710;38.732;-121.358;2023-04-26T07:16:27;100785.75;;;18.97;52.87
64967;BME280;51710;38.732;-121.358;2023-04-26T07:18:54;100790.56;;;18.95;53.15
64967;BME280;51710;38.732;-121.358;2023-04-26T07:21:23;100784.09;;;18.96;53.05
64967;BME280;51710;38.732;-121.358;2023-04-26T07:23:53;100789.50;;;18.96;53.04
64967;BME280;51710;38.732;-121.358;2023-04-26T07:26:21;100789.50;;;18.96;52.85
64967;BME280;51710;38.732;-121.358;2023-04-26T07:28:47;100787.00;;;18.94;53.07
64967;BME280;51710;38.732;-121.358;2023-04-26T07:31:13;100791.56;;;18.94;53.46
64967;BME280;51710;38.732;-121.358;2023-04-26T07:33:41;100788.66;;;18.95;53.58
64967;BME280;51710;38.732;-121.358;2023-04-26T07:36:08;100790.56;;;18.95;53.56
64967;BME280;51710;38.732;-121.358;2023-04-26T07:38:34;100789.50;;;18.96;53.36
64967;BME280;51710;38.732;-121.358;2023-04-26T07:41:01;100789.50;;;18.96;53.54
64967;BME280;51710;38.732;-121.358;2023-04-26T07:43:29;100790.94;;;18.92;53.74
64967;BME280;51710;38.732;-121.358;2023-04-26T07:45:59;100790.75;;;18.87;53.55
64967;BME280;51710;38.732;-121.358;2023-04-26T07:48:26;100789.72;;;18.81;54.00
64967;BME280;51710;38.732;-121.358;2023-04-26T07:50:52;100792.00;;;18.78;54.15
64967;BME280;51710;38.732;-121.358;2023-04-26T07:53:18;100795.75;;;18.77;54.36
64967;BME280;51710;38.732;-121.358;2023-04-26T07:55:44;100804.84;;;18.76;54.45
64967;BME280;51710;38.732;-121.358;2023-04-26T07:58:11;100801.16;;;18.77;54.49
64967;BME280;51710;38.732;-121.358;2023-04-26T08:00:40;100801.78;;;18.79;54.33
64967;BME280;51710;38.732;-121.358;2023-04-26T08:03:06;100803.41;;;18.80;54.25
64967;BME280;51710;38.732;-121.358;2023-04-26T08:05:33;100807.38;;;18.77;54.32
64967;BME280;51710;38.732;-121.358;2023-04-26T08:07:59;100795.97;;;18.75;54.35
64967;BME280;51710;38.732;-121.358;2023-04-26T08:10:28;100797.41;;;18.71;54.44
64967;BME280;51710;38.732;-121.358;2023-04-26T08:12:55;100803.00;;;18.70;54.74
64967;BME280;51710;38.732;-121.358;2023-04-26T08:15:22;100797.81;;;18.68;54.76
64967;BME280;51710;38.732;-121.358;2023-04-26T08:17:48;100806.34;;;18.65;55.13
64967;BME280;51710;38.732;-121.358;2023-04-26T08:20:18;100801.13;;;18.64;54.88
64967;BME280;51710;38.732;-121.358;2023-04-26T08:22:44;100805.94;;;18.62;55.00
64967;BME280;51710;38.732;-121.358;2023-04-26T08:25:10;100798.66;;;18.56;54.99
64967;BME280;51710;38.732;-121.358;2023-04-26T08:27:36;100797.81;;;18.49;55.05
64967;BME280;51710;38.732;-121.358;2023-04-26T08:30:03;100799.00;;;18.40;55.34
64967;BME280;51710;38.732;-121.358;2023-04-26T08:32:30;100798.81;;;18.35;55.49
64967;BME280;51710;38.732;-121.358;2023-04-26T08:34:56;100801.91;;;18.32;55.62
64967;BME280;51710;38.732;-121.358;2023-04-26T08:37:22;100802.34;;;18.29;55.55
64967;BME280;51710;38.732;-121.358;2023-04-26T08:39:49;100797.13;;;18.27;55.47
64967;BME280;51710;38.732;-121.358;2023-04-26T08:42:16;100791.94;;;18.26;55.62
64967;BME280;51710;38.732;-121.358;2023-04-26T08:44:43;100791.94;;;18.26;55.68
64967;BME280;51710;38.732;-121.358;2023-04-26T08:49:53;100794.22;;;18.09;55.84
64967;BME280;51710;38.732;-121.358;2023-04-26T08:52:30;100797.31;;;18.06;55.90
64967;BME280;51710;38.732;-121.358;2023-04-26T08:54:58;100792.75;;;18.07;56.23
64967;BME280;51710;38.732;-121.358;2023-04-26T08:57:25;100792.34;;;18.10;56.00
64967;BME280;51710;38.732;-121.358;2023-04-26T08:59:52;100789.84;;;18.08;55.76
64967;BME280;51710;38.732;-121.358;2023-04-26T09:02:20;100786.72;;;18.05;55.99
64967;BME280;51710;38.732;-121.358;2023-04-26T09:04:48;100790.03;;;18.00;55.97
64967;BME280;51710;38.732;-121.358;2023-04-26T09:07:31;100797.69;;;17.96;56.24
64967;BME280;51710;38.732;-121.358;2023-04-26T09:09:58;100794.38;;;17.94;56.34
64967;BME280;51710;38.732;-121.358;2023-04-26T09:12:25;100795.63;;;17.92;56.41
64967;BME280;51710;38.732;-121.358;2023-04-26T09:14:52;100791.47;;;17.89;56.30
64967;BME280;51710;38.732;-121.358;2023-04-26T09:17:27;100803.66;;;17.85;56.33
64967;BME280;51710;38.732;-121.358;2023-04-26T09:19:55;100805.31;;;17.80;56.40
64967;BME280;51710;38.732;-121.358;2023-04-26T09:22:33;100796.31;;;17.60;57.17
64967;BME280;51710;38.732;-121.358;2023-04-26T09:25:03;100790.38;;;17.37;57.79
64967;BME280;51710;38.732;-121.358;2023-04-26T09:27:35;100789.44;;;17.17;58.25
64967;BME280;51710;38.732;-121.358;2023-04-26T09:30:15;100791.22;;;17.03;58.69
64967;BME280;51710;38.732;-121.358;2023-04-26T09:33:00;100787.16;;;16.86;58.97
64967;BME280;51710;38.732;-121.358;2023-04-26T09:35:36;100790.94;;;16.64;59.77
64967;BME280;51710;38.732;-121.358;2023-04-26T09:38:03;100791.75;;;16.43;60.04
64967;BME280;51710;38.732;-121.358;2023-04-26T09:40:32;100798.22;;;16.28;60.72
64967;BME280;51710;38.732;-121.358;2023-04-26T09:43:02;100796.03;;;16.17;60.55
64967;BME280;51710;38.732;-121.358;2023-04-26T09:45:30;100794.31;;;16.09;60.95
64967;BME280;51710;38.732;-121.358;2023-04-26T09:48:14;100793.94;;;16.12;60.94
64967;BME280;51710;38.732;-121.358;2023-04-26T09:50:42;100794.84;;;16.19;60.21
64967;BME280;51710;38.732;-121.358;2023-04-26T09:53:11;100795.09;;;16.24;60.42
64967;BME280;51710;38.732;-121.358;2023-04-26T09:55:37;100787.09;;;16.31;60.19
64967;BME280;51710;38.732;-121.358;2023-04-26T09:58:10;100793.09;;;16.33;60.13
64967;BME280;51710;38.732;-121.358;2023-04-26T10:00:37;100796.19;;;16.30;60.23
64967;BME280;51710;38.732;-121.358;2023-04-26T10:03:07;100798.69;;;16.31;60.10
64967;BME280;51710;38.732;-121.358;2023-04-26T10:05:33;100807.38;;;16.33;60.11
64967;BME280;51710;38.732;-121.358;2023-04-26T10:08:01;100797.09;;;16.37;60.35
64967;BME280;51710;38.732;-121.358;2023-04-26T10:10:29;100800.38;;;16.39;59.89
64967;BME280;51710;38.732;-121.358;2023-04-26T10:12:56;100808.19;;;16.34;60.36
64967;BME280;51710;38.732;-121.358;2023-04-26T10:15:22;100809.72;;;16.22;60.62
64967;BME280;51710;38.732;-121.358;2023-04-26T10:17:49;100804.75;;;16.19;60.62
64967;BME280;51710;38.732;-121.358;2023-04-26T10:20:15;100809.88;;;16.14;60.53
64967;BME280;51710;38.732;-121.358;2023-04-26T10:22:51;100807.03;;;16.01;60.82
64967;BME280;51710;38.732;-121.358;2023-04-26T10:25:18;100812.34;;;15.94;61.08
64967;BME280;51710;38.732;-121.358;2023-04-26T10:30:16;100798.44;;;15.91;61.28
64967;BME280;51710;38.732;-121.358;2023-04-26T10:35:21;100814.63;;;15.61;61.84
64967;BME280;51710;38.732;-121.358;2023-04-26T10:45:40;100824.53;;;15.46;62.04
64967;BME280;51710;38.732;-121.358;2023-04-26T10:48:21;100824.09;;;15.43;62.64
64967;BME280;51710;38.732;-121.358;2023-04-26T10:53:27;100818.34;;;15.46;62.54
64967;BME280;51710;38.732;-121.358;2023-04-26T10:55:53;100819.63;;;15.50;62.25
64967;BME280;51710;38.732;-121.358;2023-04-26T10:58:33;100830.81;;;15.53;62.26
64967;BME280;51710;38.732;-121.358;2023-04-26T11:01:03;100840.28;;;15.49;62.14
64967;BME280;51710;38.732;-121.358;2023-04-26T11:03:30;100840.22;;;15.43;62.65
64967;BME280;51710;38.732;-121.358;2023-04-26T11:05:57;100843.78;;;15.35;62.64
64967;BME280;51710;38.732;-121.358;2023-04-26T11:13:21;100852.81;;;15.34;62.36
64967;BME280;51710;38.732;-121.358;2023-04-26T11:15:52;100852.47;;;15.37;62.55
64967;BME280;51710;38.732;-121.358;2023-04-26T11:18:19;100857.66;;;15.39;61.98
64967;BME280;51710;38.732;-121.358;2023-04-26T11:20:46;100852.47;;;15.37;62.46
64967;BME280;51710;38.732;-121.358;2023-04-26T11:23:12;100858.66;;;15.38;62.17
64967;BME280;51710;38.732;-121.358;2023-04-26T11:25:39;100860.97;;;15.26;62.15
64967;BME280;51710;38.732;-121.358;2023-04-26T11:28:05;100857.47;;;15.11;62.81
64967;BME280;51710;38.732;-121.358;2023-04-26T11:30:32;100856.25;;;14.99;62.89
64967;BME280;51710;38.732;-121.358;2023-04-26T11:32:59;100861.94;;;14.96;62.97
64967;BME280;51710;38.732;-121.358;2023-04-26T11:35:26;100870.72;;;14.90;63.21
64967;BME280;51710;38.732;-121.358;2023-04-26T11:37:57;100871.81;;;14.81;63.59
64967;BME280;51710;38.732;-121.358;2023-04-26T11:40:28;100866.81;;;14.78;63.81
64967;BME280;51710;38.732;-121.358;2023-04-26T11:43:02;100868.00;;;14.76;63.94
64967;BME280;51710;38.732;-121.358;2023-04-26T11:45:30;100867.72;;;14.71;63.66
64967;BME280;51710;38.732;-121.358;2023-04-26T11:47:56;100869.91;;;14.67;63.58
64967;BME280;51710;38.732;-121.358;2023-04-26T11:50:24;100868.28;;;14.66;63.63
64967;BME280;51710;38.732;-121.358;2023-04-26T11:53:01;100866.94;;;14.62;64.03
64967;BME280;51710;38.732;-121.358;2023-04-26T11:55:30;100872.03;;;14.57;64.15
64967;BME280;51710;38.732;-121.358;2023-04-26T11:58:00;100871.72;;;14.52;64.31
64967;BME280;51710;38.732;-121.358;2023-04-26T12:00:28;100876.47;;;14.42;64.41
64967;BME280;51710;38.732;-121.358;2023-04-26T12:02:54;100875.03;;;14.31;64.81
64967;BME280;51710;38.732;-121.358;2023-04-26T12:05:22;100873.22;;;14.24;65.21
64967;BME280;51710;38.732;-121.358;2023-04-26T12:07:49;100874.56;;;14.20;65.19
64967;BME280;51710;38.732;-121.358;2023-04-26T12:10:22;100873.78;;;14.11;65.31
64967;BME280;51710;38.732;-121.358;2023-04-26T12:12:50;100874.00;;;14.02;65.64
64967;BME280;51710;38.732;-121.358;2023-04-26T12:15:17;100870.06;;;13.90;66.05
64967;BME280;51710;38.732;-121.358;2023-04-26T12:18:05;100879.78;;;13.83;66.29
64967;BME280;51710;38.732;-121.358;2023-04-26T12:20:35;100875.09;;;13.85;66.28
64967;BME280;51710;38.732;-121.358;2023-04-26T12:23:11;100875.09;;;13.85;66.63
64967;BME280;51710;38.732;-121.358;2023-04-26T12:25:39;100872.09;;;13.88;66.40
64967;BME280;51710;38.732;-121.358;2023-04-26T12:28:10;100877.09;;;13.91;66.76
64967;BME280;51710;38.732;-121.358;2023-04-26T12:30:38;100875.88;;;13.93;66.58
64967;BME280;51710;38.732;-121.358;2023-04-26T12:33:05;100878.09;;;13.90;66.53
64967;BME280;51710;38.732;-121.358;2023-04-26T12:35:33;100883.78;;;13.87;66.82
64967;BME280;51710;38.732;-121.358;2023-04-26T12:38:00;100882.47;;;13.83;67.06
64967;BME280;51710;38.732;-121.358;2023-04-26T12:40:27;100883.84;;;13.79;67.34
64967;BME280;51710;38.732;-121.358;2023-04-26T12:42:53;100882.88;;;13.72;67.41
64967;BME280;51710;38.732;-121.358;2023-04-26T12:45:24;100884.56;;;13.65;67.64